Danxian, Hainan

2:14 AM CST on October 02, 2014 (GMT +0800)
Haikou | Change Station
CLOSE
Current Station
Airport
Location: Haikou,
Elevation: 75 ft
Nearby Weather Stations

Elev 75 ft 19.93 °N, 110.46 °E | Updated 14 minutes ago

Mist
Mist
73 °F
Feels Like 73 °F
N
0
Wind Variable Wind from North

Today
High -- | Low -- °F
--% Chance of Precip.
Yesterday
High -- | Low -- °F
Precip. -- in
6:32 AM 6:29 PM
Waxing Crescent, 49% visible
Pressure 29.86 in
Visibility 2.5 miles
Clouds
Dew Point 72 °F
Humidity 94%
Rainfall 0.00 in
Snow Depth Not available.
UV Not available.
Pollen Not available.
Air Quality Not available.
Flu Activity Not available.
METAR ZJHK 301800Z 00000MPS 4000 BR NSC 23/22 Q1011 NOSIG

More Conditions Fewer Conditions

Pressure 29.86 in
Visibility 2.5 miles
Clouds
Dew Point 72 °F
Humidity 94%
Rainfall 0.00 in
Snow Depth Not available.
UV Not available.
Pollen Not available.
Air Quality Not available.
Flu Activity Not available.
METAR ZJHK 301800Z 00000MPS 4000 BR NSC 23/22 Q1011 NOSIG

More Conditions Fewer Conditions

10-Day Weather Forecast

Almanac

Astronomy

Oct. 02, 2014 Rise Set
Actual Time 6:32 AM CST 6:29 PM CST
Civil Twilight 6:10 AM CST 6:51 PM CST
Nautical Twilight 5:45 AM CST 7:16 PM CST
Astronomical Twilight 5:19 AM CST 7:42 PM CST
Moon 1:24 PM CST (10/2) 12:00 AM CST (10/2)
Length of Visible Light 12h 40m
Length of Day
11h 56m
Tomorrow will be 1m 6s shorter.
Waxing Crescent, 49% of the Moon is Illuminated
Oct 1
Waxing Crescent
Oct 1
First Quarter
Oct 8
Full
Oct 15
Last Quarter
Oct 23
New

Yesterday's Extremes

Country Highs Country Lows

Community

WunderPhotos

Upload Photos

1,758,008 photos uploaded!

WunderBlogs® & News

By Dr. Jeff Masters
Director of Meteorology, Weather Underground
By Kari Strenfel
Meteorologist, Weather Underground
By Christopher C. Burt
Weather Historian, Weather Underground
October 1, 2014
October 1, 2014
October 1, 2014

Nearby

Snow Depth

Not available.

Earthquake Activity

City Distance Mag. Time & Date
No recent earthquake activity has been reported nearby.
Minimum magnitude displayed is 2.5.

Coastal Water Temperatures

Place Temperature
No Stations Reporting

Nearby Weather Stations